Time;durP1;ratioP1;P1;durP2;ratioP2;P2;SDS_P1;SDS_P2;PMS_P1;PMS_P2;Temp;Humidity;BMP_temperature;BMP_pressure;BME280_temperature;BME280_humidity;BME280_pressure;Samples;Min_cycle;Max_cycle;Signal;HPM_P1;HPM_P2
2023/08/31 00:00:26;;;;;;;;;2.00;1.00;;;;;;;;4659634;30;28618;-89
2023/08/31 00:02:51;;;;;;;;;2.25;2.25;;;;;;;;4655711;30;28764;-85
2023/08/31 00:05:17;;;;;;;;;1.33;1.33;;;;;;;;4655327;30;28292;-90
2023/08/31 00:07:42;;;;;;;;;1.67;1.67;;;;;;;;4662901;30;28508;-84
2023/08/31 00:10:11;;;;;;;;;2.50;1.00;;;;;;;;4653251;30;28613;-84
2023/08/31 00:12:37;;;;;;;;;3.50;1.75;;;;;;;;4656398;30;28596;-82
2023/08/31 00:15:04;;;;;;;;;3.75;1.75;;;;;;;;4645066;30;28483;-90
2023/08/31 00:17:29;;;;;;;;;3.33;2.00;;;;;;;;4645973;30;28454;-88
2023/08/31 00:19:54;;;;;;;;;2.33;2.00;;;;;;;;4650726;30;28555;-82
2023/08/31 00:22:19;;;;;;;;;5.75;1.75;;;;;;;;4647889;30;28535;-82
2023/08/31 00:24:45;;;;;;;;;1.67;1.67;;;;;;;;4649882;30;28523;-90
2023/08/31 00:27:12;;;;;;;;;0.00;0.00;;;;;;;;4652625;30;28844;-76
2023/08/31 00:29:38;;;;;;;;;2.00;1.00;;;;;;;;4659005;30;29602;-82
2023/08/31 00:32:04;;;;;;;;;2.00;1.00;;;;;;;;4649237;30;28528;-82
2023/08/31 00:34:29;;;;;;;;;2.67;2.00;;;;;;;;4647594;30;28485;-81
2023/08/31 00:36:54;;;;;;;;;1.00;1.00;;;;;;;;4653781;30;28631;-80
2023/08/31 00:39:20;;;;;;;;;2.00;1.67;;;;;;;;4659246;30;30138;-82
2023/08/31 00:41:46;;;;;;;;;1.00;1.00;;;;;;;;4656013;30;28513;-82
2023/08/31 00:44:11;;;;;;;;;2.67;1.67;;;;;;;;4646731;30;28528;-80
2023/08/31 00:46:37;;;;;;;;;1.00;1.00;;;;;;;;4654514;30;28596;-79
2023/08/31 00:49:03;;;;;;;;;1.25;1.25;;;;;;;;4649213;30;29185;-80
2023/08/31 00:51:29;;;;;;;;;0.67;0.67;;;;;;;;4642588;30;28463;-83
2023/08/31 00:53:55;;;;;;;;;2.00;1.00;;;;;;;;4648046;30;28496;-82
2023/08/31 00:56:20;;;;;;;;;1.33;1.00;;;;;;;;4645991;30;28571;-81
2023/08/31 00:58:48;;;;;;;;;0.67;0.00;;;;;;;;4653940;30;28674;-83
2023/08/31 01:01:25;;;;;;;;;1.00;1.00;;;;;;;;4663774;30;28546;-81
2023/08/31 01:03:59;;;;;;;;;0.67;0.67;;;;;;;;4663228;30;28449;-85
2023/08/31 01:06:36;;;;;;;;;0.67;0.67;;;;;;;;4659475;30;28693;-84
2023/08/31 01:09:03;;;;;;;;;0.67;0.67;;;;;;;;4651562;30;29442;-79
2023/08/31 01:11:36;;;;;;;;;1.00;1.00;;;;;;;;4645703;30;28607;-80
2023/08/31 01:14:11;;;;;;;;;1.75;1.75;;;;;;;;4662970;30;28567;-83
2023/08/31 01:16:39;;;;;;;;;1.00;1.00;;;;;;;;4657138;30;28537;-85
2023/08/31 01:19:06;;;;;;;;;1.33;0.67;;;;;;;;4655917;30;28579;-81
2023/08/31 01:21:35;;;;;;;;;1.00;1.00;;;;;;;;4661176;30;28905;-80
2023/08/31 01:24:01;;;;;;;;;0.00;0.00;;;;;;;;4651749;30;28525;-82
2023/08/31 01:26:27;;;;;;;;;2.00;0.67;;;;;;;;4647417;30;28491;-86
2023/08/31 01:28:54;;;;;;;;;1.00;1.00;;;;;;;;4658422;30;28600;-84
2023/08/31 01:31:20;;;;;;;;;0.00;0.00;;;;;;;;4651891;30;28556;-87
2023/08/31 01:33:45;;;;;;;;;1.25;1.25;;;;;;;;4655729;30;28483;-87
2023/08/31 01:36:20;;;;;;;;;3.00;1.00;;;;;;;;4652329;30;27871;-87
2023/08/31 01:38:48;;;;;;;;;0.75;0.75;;;;;;;;4661867;30;28639;-87
2023/08/31 01:41:17;;;;;;;;;0.00;0.00;;;;;;;;4678254;30;28043;-87
2023/08/31 01:43:43;;;;;;;;;1.50;1.50;;;;;;;;4660744;30;28439;-88
2023/08/31 01:46:09;;;;;;;;;1.00;0.75;;;;;;;;4648968;30;28567;-88
2023/08/31 01:48:39;;;;;;;;;0.00;0.00;;;;;;;;4650715;30;28672;-88
2023/08/31 01:51:05;;;;;;;;;2.00;1.00;;;;;;;;4664377;30;28465;-88
2023/08/31 01:53:30;;;;;;;;;2.00;1.00;;;;;;;;4664933;30;27954;-89
2023/08/31 01:55:56;;;;;;;;;0.67;0.67;;;;;;;;4663260;30;28452;-78
2023/08/31 01:58:22;;;;;;;;;0.67;0.67;;;;;;;;4660402;30;29191;-77
2023/08/31 02:00:47;;;;;;;;;1.75;1.75;;;;;;;;4657678;30;28535;-89
2023/08/31 02:03:13;;;;;;;;;3.00;1.25;;;;;;;;4663137;30;28503;-90
2023/08/31 02:05:38;;;;;;;;;2.00;0.67;;;;;;;;4652187;30;28424;-88
2023/08/31 02:08:03;;;;;;;;;2.00;0.33;;;;;;;;4646290;30;30139;-88
2023/08/31 02:10:29;;;;;;;;;1.00;1.00;;;;;;;;4647195;30;28583;-88
2023/08/31 02:12:54;;;;;;;;;0.67;0.67;;;;;;;;4631783;30;28444;-88
2023/08/31 02:15:20;;;;;;;;;1.00;1.00;;;;;;;;4647010;30;28553;-88
2023/08/31 02:17:45;;;;;;;;;1.33;1.00;;;;;;;;4653129;30;29270;-89
2023/08/31 02:20:10;;;;;;;;;1.67;1.67;;;;;;;;4648666;30;28578;-87
2023/08/31 02:22:35;;;;;;;;;0.33;0.00;;;;;;;;4646153;30;28547;-86
2023/08/31 02:25:01;;;;;;;;;1.33;0.33;;;;;;;;4646947;30;28580;-85
2023/08/31 02:27:26;;;;;;;;;3.00;2.00;;;;;;;;4645965;30;29720;-86
2023/08/31 02:29:51;;;;;;;;;1.67;0.00;;;;;;;;4647237;30;28425;-86
2023/08/31 02:32:17;;;;;;;;;1.50;0.50;;;;;;;;4646777;30;28686;-85
2023/08/31 02:34:42;;;;;;;;;1.00;1.00;;;;;;;;4646740;30;28480;-85
2023/08/31 02:37:07;;;;;;;;;1.00;1.00;;;;;;;;4647066;30;29400;-86
2023/08/31 02:39:32;;;;;;;;;1.00;1.00;;;;;;;;4653378;30;28490;-85
2023/08/31 02:41:57;;;;;;;;;0.00;0.00;;;;;;;;4646322;30;28405;-86
2023/08/31 02:44:23;;;;;;;;;1.33;1.00;;;;;;;;4647673;30;28492;-86
2023/08/31 02:46:48;;;;;;;;;0.33;0.33;;;;;;;;4651010;30;28255;-83
2023/08/31 02:49:13;;;;;;;;;0.67;0.67;;;;;;;;4654547;30;28512;-85
2023/08/31 02:51:39;;;;;;;;;1.00;1.00;;;;;;;;4654517;30;28656;-84
2023/08/31 02:54:04;;;;;;;;;1.67;1.67;;;;;;;;4646955;30;27819;-86
2023/08/31 02:56:29;;;;;;;;;0.67;0.67;;;;;;;;4645478;30;30684;-86
2023/08/31 02:58:54;;;;;;;;;2.00;1.50;;;;;;;;4646552;30;28465;-85
2023/08/31 03:01:20;;;;;;;;;1.00;1.00;;;;;;;;4648200;30;28528;-86
2023/08/31 03:03:46;;;;;;;;;1.00;1.00;;;;;;;;4662623;30;28486;-85
2023/08/31 03:06:11;;;;;;;;;3.25;3.25;;;;;;;;4661195;30;29837;-84
2023/08/31 03:08:37;;;;;;;;;1.33;1.00;;;;;;;;4662027;30;28548;-84
2023/08/31 03:11:02;;;;;;;;;1.33;0.00;;;;;;;;4662406;30;28477;-84
2023/08/31 03:13:28;;;;;;;;;0.67;0.67;;;;;;;;4648793;30;28450;-83
2023/08/31 03:15:53;;;;;;;;;3.00;2.00;;;;;;;;4643414;30;28569;-84
2023/08/31 03:18:18;;;;;;;;;1.33;0.67;;;;;;;;4652221;30;28544;-84
2023/08/31 03:20:43;;;;;;;;;1.25;1.25;;;;;;;;4645238;30;28555;-84
2023/08/31 03:23:10;;;;;;;;;1.00;0.67;;;;;;;;4645042;30;28538;-82
2023/08/31 03:25:36;;;;;;;;;1.67;1.00;;;;;;;;4644590;30;28512;-83
2023/08/31 03:28:01;;;;;;;;;4.00;1.33;;;;;;;;4647421;30;28800;-81
2023/08/31 03:30:27;;;;;;;;;2.67;1.67;;;;;;;;4658328;30;28553;-82
2023/08/31 03:32:53;;;;;;;;;0.67;0.67;;;;;;;;4644417;30;28494;-82
2023/08/31 03:35:18;;;;;;;;;2.00;1.75;;;;;;;;4645430;30;28505;-90
2023/08/31 03:37:46;;;;;;;;;1.00;0.67;;;;;;;;4644268;30;28634;-85
2023/08/31 03:40:11;;;;;;;;;1.33;1.33;;;;;;;;4660093;30;28598;-82
2023/08/31 03:42:37;;;;;;;;;2.00;2.00;;;;;;;;4654585;30;28526;-82
2023/08/31 03:45:03;;;;;;;;;2.00;2.00;;;;;;;;4659311;30;28579;-84
2023/08/31 03:47:28;;;;;;;;;0.33;0.33;;;;;;;;4663779;30;28576;-83
2023/08/31 03:49:54;;;;;;;;;0.33;0.00;;;;;;;;4662842;30;28416;-84
2023/08/31 03:52:19;;;;;;;;;3.50;2.50;;;;;;;;4661450;30;28551;-82
2023/08/31 03:54:44;;;;;;;;;2.00;2.00;;;;;;;;4649818;30;28663;-85
2023/08/31 03:57:09;;;;;;;;;1.00;1.00;;;;;;;;4661767;30;28474;-81
2023/08/31 03:59:35;;;;;;;;;2.00;0.33;;;;;;;;4662426;30;28571;-80
2023/08/31 04:02:00;;;;;;;;;1.00;1.00;;;;;;;;4659294;30;28511;-80
2023/08/31 04:04:25;;;;;;;;;1.00;1.00;;;;;;;;4662534;30;28483;-80
2023/08/31 04:06:50;;;;;;;;;1.00;1.00;;;;;;;;4662820;30;28473;-83
2023/08/31 04:09:15;;;;;;;;;2.00;2.00;;;;;;;;4661852;30;28411;-83
2023/08/31 04:11:41;;;;;;;;;0.67;0.67;;;;;;;;4653503;30;28412;-83
2023/08/31 04:14:06;;;;;;;;;1.25;1.25;;;;;;;;4645951;30;29360;-82
2023/08/31 04:16:31;;;;;;;;;2.75;0.75;;;;;;;;4644225;30;28980;-85
2023/08/31 04:18:57;;;;;;;;;0.67;0.33;;;;;;;;4652105;30;28534;-85
2023/08/31 04:21:22;;;;;;;;;1.00;1.00;;;;;;;;4663187;30;28514;-85
2023/08/31 04:23:47;;;;;;;;;1.50;1.50;;;;;;;;4659976;30;28500;-84
2023/08/31 04:26:13;;;;;;;;;1.00;1.00;;;;;;;;4660712;30;28368;-84
2023/08/31 04:28:39;;;;;;;;;3.75;2.00;;;;;;;;4653775;30;27784;-85
2023/08/31 04:31:05;;;;;;;;;2.00;2.00;;;;;;;;4652065;30;28370;-83
2023/08/31 04:33:30;;;;;;;;;1.00;1.00;;;;;;;;4664608;30;28561;-85
2023/08/31 04:35:55;;;;;;;;;1.00;1.00;;;;;;;;4664271;30;28434;-83
2023/08/31 04:38:21;;;;;;;;;2.50;2.00;;;;;;;;4661299;30;28347;-80
2023/08/31 04:40:46;;;;;;;;;1.00;1.00;;;;;;;;4646632;30;28458;-79
2023/08/31 04:43:11;;;;;;;;;2.25;2.25;;;;;;;;4661448;30;28523;-79
2023/08/31 04:45:36;;;;;;;;;3.75;2.00;;;;;;;;4661368;30;28605;-81
2023/08/31 04:48:03;;;;;;;;;3.00;2.00;;;;;;;;4663121;30;28401;-80
2023/08/31 04:50:28;;;;;;;;;1.00;1.00;;;;;;;;4663409;30;28491;-81
2023/08/31 04:52:54;;;;;;;;;2.00;1.00;;;;;;;;4660868;30;28597;-80
2023/08/31 04:55:21;;;;;;;;;3.00;2.00;;;;;;;;4654046;30;28503;-81
2023/08/31 04:57:46;;;;;;;;;1.00;1.00;;;;;;;;4653020;30;28504;-80
2023/08/31 05:00:11;;;;;;;;;1.00;1.00;;;;;;;;4652269;30;28411;-80
2023/08/31 05:02:37;;;;;;;;;3.00;1.67;;;;;;;;4666073;30;28342;-81
2023/08/31 05:05:03;;;;;;;;;2.00;2.00;;;;;;;;4654053;30;27755;-84
2023/08/31 05:07:28;;;;;;;;;0.00;0.00;;;;;;;;4670407;30;28242;-84
2023/08/31 05:09:53;;;;;;;;;6.00;1.67;;;;;;;;4675231;30;27965;-84
2023/08/31 05:12:18;;;;;;;;;2.25;1.00;;;;;;;;4660514;30;28453;-84
2023/08/31 05:14:44;;;;;;;;;3.00;0.67;;;;;;;;4659081;30;28299;-84
2023/08/31 05:17:09;;;;;;;;;1.00;1.00;;;;;;;;4663375;30;28515;-84
2023/08/31 05:19:34;;;;;;;;;3.00;0.67;;;;;;;;4676735;30;28349;-85
2023/08/31 05:22:00;;;;;;;;;1.00;1.00;;;;;;;;4660671;30;30635;-84
2023/08/31 05:24:25;;;;;;;;;3.33;1.67;;;;;;;;4662792;30;27878;-84
2023/08/31 05:26:51;;;;;;;;;4.75;2.00;;;;;;;;4662775;30;28491;-83
2023/08/31 05:29:16;;;;;;;;;2.00;2.00;;;;;;;;4666696;30;27773;-84
2023/08/31 05:31:41;;;;;;;;;1.33;1.33;;;;;;;;4679296;30;28034;-87
2023/08/31 05:34:06;;;;;;;;;2.25;2.25;;;;;;;;4673560;30;27719;-84
2023/08/31 05:36:31;;;;;;;;;2.25;1.25;;;;;;;;4688884;30;27902;-87
2023/08/31 05:38:57;;;;;;;;;1.33;0.67;;;;;;;;4673817;30;27930;-85
2023/08/31 05:41:22;;;;;;;;;3.67;3.67;;;;;;;;4680423;30;28296;-85
2023/08/31 05:43:47;;;;;;;;;1.67;0.67;;;;;;;;4678157;30;27865;-82
2023/08/31 05:46:13;;;;;;;;;3.00;2.00;;;;;;;;4674509;30;28150;-82
2023/08/31 05:48:38;;;;;;;;;2.33;1.00;;;;;;;;4677910;30;27921;-85
2023/08/31 05:51:06;;;;;;;;;1.00;1.00;;;;;;;;4674558;30;28408;-86
2023/08/31 05:53:31;;;;;;;;;1.67;0.67;;;;;;;;4666811;30;28582;-84
2023/08/31 05:56:03;;;;;;;;;2.00;2.00;;;;;;;;4667209;30;28499;-86
2023/08/31 05:58:29;;;;;;;;;1.67;0.67;;;;;;;;4663433;30;28479;-85
2023/08/31 06:00:54;;;;;;;;;5.67;3.00;;;;;;;;4664861;30;28385;-85
2023/08/31 06:03:19;;;;;;;;;1.33;1.33;;;;;;;;4659107;30;28511;-83
2023/08/31 06:05:44;;;;;;;;;1.00;1.00;;;;;;;;4639242;30;28567;-84
2023/08/31 06:08:09;;;;;;;;;3.00;1.50;;;;;;;;4654144;30;28653;-83
2023/08/31 06:10:35;;;;;;;;;2.25;0.50;;;;;;;;4659884;30;29180;-85
2023/08/31 06:13:00;;;;;;;;;2.00;2.00;;;;;;;;4657405;30;28509;-84
2023/08/31 06:15:25;;;;;;;;;3.75;0.75;;;;;;;;4650764;30;28529;-83
2023/08/31 06:17:50;;;;;;;;;1.67;0.67;;;;;;;;4655920;30;28525;-80
2023/08/31 06:20:16;;;;;;;;;2.00;2.00;;;;;;;;4649006;30;29213;-79
2023/08/31 06:22:41;;;;;;;;;2.50;1.50;;;;;;;;4660941;30;28604;-79
2023/08/31 06:25:07;;;;;;;;;1.00;0.00;;;;;;;;4660458;30;28379;-82
2023/08/31 06:27:33;;;;;;;;;1.67;1.67;;;;;;;;4659430;30;28353;-82
2023/08/31 06:29:58;;;;;;;;;0.67;0.67;;;;;;;;4658902;30;28637;-81
2023/08/31 06:32:23;;;;;;;;;1.67;0.67;;;;;;;;4654654;30;28475;-81
2023/08/31 06:34:48;;;;;;;;;0.67;0.67;;;;;;;;4656552;30;28494;-82
2023/08/31 06:37:13;;;;;;;;;1.67;0.67;;;;;;;;4649051;30;39540;-80
2023/08/31 06:39:40;;;;;;;;;4.00;0.67;;;;;;;;4655244;30;28545;-86
2023/08/31 06:42:05;;;;;;;;;0.67;0.67;;;;;;;;4667318;30;28362;-87
2023/08/31 06:44:31;;;;;;;;;0.33;0.33;;;;;;;;4661753;30;28542;-86
2023/08/31 06:46:56;;;;;;;;;0.67;0.67;;;;;;;;4661739;30;28575;-88
2023/08/31 06:49:24;;;;;;;;;5.25;3.00;;;;;;;;4653984;30;28207;-85
2023/08/31 06:51:49;;;;;;;;;3.50;2.25;;;;;;;;4651537;30;28542;-84
2023/08/31 06:54:14;;;;;;;;;3.25;3.25;;;;;;;;4650984;30;27898;-85
2023/08/31 06:56:40;;;;;;;;;3.00;2.00;;;;;;;;4652217;30;28506;-84
2023/08/31 06:59:05;;;;;;;;;1.00;1.00;;;;;;;;4664866;30;28577;-84
2023/08/31 07:01:32;;;;;;;;;2.00;2.00;;;;;;;;4651873;30;28596;-84
2023/08/31 07:03:59;;;;;;;;;1.00;1.00;;;;;;;;4665402;30;28516;-84
2023/08/31 07:06:24;;;;;;;;;1.33;1.00;;;;;;;;4659292;30;28419;-83
2023/08/31 07:08:49;;;;;;;;;2.00;2.00;;;;;;;;4667535;30;28357;-85
2023/08/31 07:11:15;;;;;;;;;4.33;1.00;;;;;;;;4671893;30;28639;-84
2023/08/31 07:13:40;;;;;;;;;1.67;1.67;;;;;;;;4680533;30;27802;-83
2023/08/31 07:16:05;;;;;;;;;4.00;1.00;;;;;;;;4682393;30;27859;-83
2023/08/31 07:18:31;;;;;;;;;1.00;1.00;;;;;;;;4660727;30;28592;-83
2023/08/31 07:20:56;;;;;;;;;1.00;1.00;;;;;;;;4666154;30;28406;-83
2023/08/31 07:23:22;;;;;;;;;1.67;1.67;;;;;;;;4655535;30;27800;-79
2023/08/31 07:25:47;;;;;;;;;2.33;0.67;;;;;;;;4647035;30;28550;-81
2023/08/31 07:28:12;;;;;;;;;3.67;2.67;;;;;;;;4644367;30;45426;-80
2023/08/31 07:30:37;;;;;;;;;1.00;1.00;;;;;;;;4652910;30;29174;-80
2023/08/31 07:33:03;;;;;;;;;1.00;0.67;;;;;;;;4652312;30;28416;-79
2023/08/31 07:35:29;;;;;;;;;3.75;1.75;;;;;;;;4661342;30;28431;-80
2023/08/31 07:37:54;;;;;;;;;1.00;1.00;;;;;;;;4658605;30;28571;-82
2023/08/31 07:40:19;;;;;;;;;2.33;1.00;;;;;;;;4649728;30;28016;-82
2023/08/31 07:42:44;;;;;;;;;0.00;0.00;;;;;;;;4661210;30;28511;-83
2023/08/31 07:45:10;;;;;;;;;2.25;2.25;;;;;;;;4665908;30;28660;-82
2023/08/31 07:47:35;;;;;;;;;1.67;1.67;;;;;;;;4655484;30;28504;-84
2023/08/31 07:50:00;;;;;;;;;1.50;0.75;;;;;;;;4655742;30;28582;-84
2023/08/31 07:52:25;;;;;;;;;1.25;1.25;;;;;;;;4658402;30;28453;-84
2023/08/31 07:54:50;;;;;;;;;2.00;2.00;;;;;;;;4665781;30;28415;-85
2023/08/31 07:57:16;;;;;;;;;2.00;0.00;;;;;;;;4658313;30;28535;-84
2023/08/31 07:59:41;;;;;;;;;2.00;2.00;;;;;;;;4652136;30;28561;-82
2023/08/31 08:02:06;;;;;;;;;1.33;0.00;;;;;;;;4653518;30;28579;-83
2023/08/31 08:04:32;;;;;;;;;1.00;1.00;;;;;;;;4648975;30;28718;-83
2023/08/31 08:06:57;;;;;;;;;4.25;1.75;;;;;;;;4659797;30;29501;-79
2023/08/31 08:09:22;;;;;;;;;0.00;0.00;;;;;;;;4654656;30;28429;-80
2023/08/31 08:11:47;;;;;;;;;1.00;1.00;;;;;;;;4656867;30;28421;-78
2023/08/31 08:14:13;;;;;;;;;1.00;1.00;;;;;;;;4653204;30;28366;-79
2023/08/31 08:16:38;;;;;;;;;0.75;0.75;;;;;;;;4660402;30;28349;-79
2023/08/31 08:19:03;;;;;;;;;1.00;1.00;;;;;;;;4661879;30;28949;-80
2023/08/31 08:21:28;;;;;;;;;0.67;0.00;;;;;;;;4657710;30;28317;-81
2023/08/31 08:23:53;;;;;;;;;0.67;0.67;;;;;;;;4653519;30;28406;-81
2023/08/31 08:26:18;;;;;;;;;1.00;0.67;;;;;;;;4645225;30;28738;-81
2023/08/31 08:28:44;;;;;;;;;0.67;0.67;;;;;;;;4639531;30;28504;-80
2023/08/31 08:31:09;;;;;;;;;1.00;1.00;;;;;;;;4660677;30;28394;-83
2023/08/31 08:33:34;;;;;;;;;1.67;1.00;;;;;;;;4651099;30;28346;-84
2023/08/31 08:36:00;;;;;;;;;9.75;9.25;;;;;;;;4659199;30;29343;-81
2023/08/31 08:38:26;;;;;;;;;8.75;7.00;;;;;;;;4660644;30;28339;-85
2023/08/31 08:40:51;;;;;;;;;2.67;2.67;;;;;;;;4647869;30;28890;-86
2023/08/31 08:43:20;;;;;;;;;2.00;2.00;;;;;;;;4644274;30;28488;-86
2023/08/31 08:45:46;;;;;;;;;3.33;0.67;;;;;;;;4663567;30;28601;-85
2023/08/31 08:48:12;;;;;;;;;1.33;1.33;;;;;;;;4658409;30;28518;-84
2023/08/31 08:50:37;;;;;;;;;1.00;1.00;;;;;;;;4652543;30;28571;-84
2023/08/31 08:53:03;;;;;;;;;1.67;1.00;;;;;;;;4650516;30;28650;-83
2023/08/31 08:55:28;;;;;;;;;0.33;0.33;;;;;;;;4664570;30;28417;-84
2023/08/31 08:57:53;;;;;;;;;2.00;1.00;;;;;;;;4665460;30;28494;-84
2023/08/31 09:00:19;;;;;;;;;3.67;0.00;;;;;;;;4650199;30;29732;-82
2023/08/31 09:02:45;;;;;;;;;1.33;0.00;;;;;;;;4659859;30;28355;-83
2023/08/31 09:05:10;;;;;;;;;2.00;0.00;;;;;;;;4660304;30;28350;-85
2023/08/31 09:07:39;;;;;;;;;2.67;1.00;;;;;;;;4652529;30;28658;-85
2023/08/31 09:10:04;;;;;;;;;1.00;1.00;;;;;;;;4644062;30;28470;-83
2023/08/31 09:12:30;;;;;;;;;2.00;1.00;;;;;;;;4651059;30;28506;-84
2023/08/31 09:14:59;;;;;;;;;1.00;1.00;;;;;;;;4651482;30;28594;-84
2023/08/31 09:17:26;;;;;;;;;2.00;2.00;;;;;;;;4651220;30;28445;-83
2023/08/31 09:20:00;;;;;;;;;0.67;0.67;;;;;;;;4657651;30;28566;-83
2023/08/31 09:22:26;;;;;;;;;2.33;1.00;;;;;;;;4651248;30;28444;-84
2023/08/31 09:24:51;;;;;;;;;1.00;0.00;;;;;;;;4654793;30;28685;-84
2023/08/31 09:27:19;;;;;;;;;3.00;2.00;;;;;;;;4667139;30;28365;-84
2023/08/31 09:29:45;;;;;;;;;1.00;1.00;;;;;;;;4644987;30;28511;-80
2023/08/31 09:32:15;;;;;;;;;1.00;1.00;;;;;;;;4647026;30;28418;-80
2023/08/31 09:34:40;;;;;;;;;1.00;1.00;;;;;;;;4655100;30;28582;-86
2023/08/31 09:37:08;;;;;;;;;1.33;1.33;;;;;;;;4639810;30;28491;-86
2023/08/31 09:39:37;;;;;;;;;3.00;1.67;;;;;;;;4653311;30;28619;-88
2023/08/31 09:42:03;;;;;;;;;3.67;2.67;;;;;;;;4651942;30;28560;-86
2023/08/31 09:44:28;;;;;;;;;1.00;1.00;;;;;;;;4654876;30;28561;-83
2023/08/31 09:46:54;;;;;;;;;2.00;2.00;;;;;;;;4651455;30;28544;-84
2023/08/31 09:49:20;;;;;;;;;2.00;2.00;;;;;;;;4650888;30;28479;-85
2023/08/31 09:51:46;;;;;;;;;2.00;1.00;;;;;;;;4656052;30;28640;-86
2023/08/31 09:54:13;;;;;;;;;0.00;0.00;;;;;;;;4652406;30;28249;-85
2023/08/31 09:56:40;;;;;;;;;2.67;2.00;;;;;;;;4650863;30;28543;-85
2023/08/31 09:59:06;;;;;;;;;1.00;1.00;;;;;;;;4657915;30;28461;-85
2023/08/31 10:01:31;;;;;;;;;3.00;1.67;;;;;;;;4642030;30;28563;-84
2023/08/31 10:03:58;;;;;;;;;2.00;1.00;;;;;;;;4651219;30;29623;-84
2023/08/31 10:06:24;;;;;;;;;1.00;1.00;;;;;;;;4653275;30;28478;-84
2023/08/31 10:08:50;;;;;;;;;1.00;1.00;;;;;;;;4656230;30;28422;-83
2023/08/31 10:11:15;;;;;;;;;3.33;0.00;;;;;;;;4658901;30;28620;-83
2023/08/31 10:13:41;;;;;;;;;2.00;2.00;;;;;;;;4651000;30;29771;-82
2023/08/31 10:16:06;;;;;;;;;5.00;3.00;;;;;;;;4650675;30;28447;-85
2023/08/31 10:18:34;;;;;;;;;2.00;2.00;;;;;;;;4657458;30;28338;-76
2023/08/31 10:20:59;;;;;;;;;7.33;3.33;;;;;;;;4654449;30;28483;-80
2023/08/31 10:23:24;;;;;;;;;3.00;1.00;;;;;;;;4657709;30;29232;-81
2023/08/31 10:25:49;;;;;;;;;2.00;2.00;;;;;;;;4653853;30;28590;-80
2023/08/31 10:28:18;;;;;;;;;3.67;3.00;;;;;;;;4660287;30;28533;-79
2023/08/31 10:30:59;;;;;;;;;3.33;2.00;;;;;;;;4656763;30;28404;-80
2023/08/31 10:33:25;;;;;;;;;3.67;1.67;;;;;;;;4647265;30;28546;-79
2023/08/31 10:35:52;;;;;;;;;1.67;1.67;;;;;;;;4640858;30;28491;-78
2023/08/31 10:38:24;;;;;;;;;1.00;1.00;;;;;;;;4630944;30;28417;-80
2023/08/31 10:41:02;;;;;;;;;2.00;2.00;;;;;;;;4637460;30;28638;-78
2023/08/31 10:43:28;;;;;;;;;1.33;1.33;;;;;;;;4650622;30;28548;-79
2023/08/31 10:45:53;;;;;;;;;2.00;2.00;;;;;;;;4653837;30;28456;-78
2023/08/31 10:48:18;;;;;;;;;1.33;1.33;;;;;;;;4647599;30;28614;-78
2023/08/31 10:50:44;;;;;;;;;2.00;1.00;;;;;;;;4650965;30;28440;-78
2023/08/31 10:53:10;;;;;;;;;1.00;1.00;;;;;;;;4655779;30;28637;-81
2023/08/31 10:55:50;;;;;;;;;5.67;3.00;;;;;;;;4648798;30;28421;-80
2023/08/31 10:58:15;;;;;;;;;1.00;0.33;;;;;;;;4643887;30;29474;-79
2023/08/31 11:01:06;;;;;;;;;3.00;1.00;;;;;;;;4645187;30;28356;-79
2023/08/31 11:03:32;;;;;;;;;2.00;2.00;;;;;;;;4644670;30;28468;-80
2023/08/31 11:05:57;;;;;;;;;1.67;1.67;;;;;;;;4639415;30;28565;-79
2023/08/31 11:08:23;;;;;;;;;4.67;3.00;;;;;;;;4636095;30;28626;-81
2023/08/31 11:10:49;;;;;;;;;2.00;2.00;;;;;;;;4648122;30;28536;-80
2023/08/31 11:13:18;;;;;;;;;3.00;2.67;;;;;;;;4648088;30;28483;-80
2023/08/31 11:15:47;;;;;;;;;3.00;2.00;;;;;;;;4646949;30;27935;-78
2023/08/31 11:18:16;;;;;;;;;2.67;2.00;;;;;;;;4645915;30;28477;-78
2023/08/31 11:20:42;;;;;;;;;2.00;2.00;;;;;;;;4636243;30;28484;-80
2023/08/31 11:23:07;;;;;;;;;2.00;2.00;;;;;;;;4646575;30;29967;-81
2023/08/31 11:25:32;;;;;;;;;2.00;2.00;;;;;;;;4645213;30;28414;-78
2023/08/31 11:27:59;;;;;;;;;1.67;0.67;;;;;;;;4654647;30;28581;-78
2023/08/31 11:30:25;;;;;;;;;3.67;2.33;;;;;;;;4652258;30;28336;-79
2023/08/31 11:32:51;;;;;;;;;1.67;1.33;;;;;;;;4660854;30;29277;-80
2023/08/31 11:35:17;;;;;;;;;2.33;2.33;;;;;;;;4652431;30;27931;-78
2023/08/31 11:37:43;;;;;;;;;2.00;1.00;;;;;;;;4657690;30;28382;-80
2023/08/31 11:40:08;;;;;;;;;1.33;1.33;;;;;;;;4662694;30;27921;-80
2023/08/31 11:42:34;;;;;;;;;1.33;1.33;;;;;;;;4648904;30;28424;-80
2023/08/31 11:44:59;;;;;;;;;1.00;1.00;;;;;;;;4647948;30;28356;-78
2023/08/31 11:47:24;;;;;;;;;1.00;1.00;;;;;;;;4647472;30;28528;-80
2023/08/31 11:49:50;;;;;;;;;0.00;0.00;;;;;;;;4657902;30;28491;-80
2023/08/31 11:52:15;;;;;;;;;0.00;0.00;;;;;;;;4655414;30;28401;-80
2023/08/31 11:54:42;;;;;;;;;0.33;0.00;;;;;;;;4656846;30;28531;-80
2023/08/31 11:57:10;;;;;;;;;1.00;1.00;;;;;;;;4664060;30;28373;-79
2023/08/31 11:59:36;;;;;;;;;0.67;0.67;;;;;;;;4646010;30;28442;-81
2023/08/31 12:02:02;;;;;;;;;0.00;0.00;;;;;;;;4655084;30;30128;-80
2023/08/31 12:04:28;;;;;;;;;0.33;0.00;;;;;;;;4644330;30;28405;-80
2023/08/31 12:07:00;;;;;;;;;1.33;1.00;;;;;;;;4641303;30;28700;-83
2023/08/31 12:09:27;;;;;;;;;0.00;0.00;;;;;;;;4647050;30;28371;-81
2023/08/31 12:11:52;;;;;;;;;1.00;0.67;;;;;;;;4637474;30;28664;-78
2023/08/31 12:14:19;;;;;;;;;2.33;0.33;;;;;;;;4646066;30;28412;-78
2023/08/31 12:16:44;;;;;;;;;1.33;0.33;;;;;;;;4640572;30;28519;-78
2023/08/31 12:19:09;;;;;;;;;0.33;0.33;;;;;;;;4644649;30;28447;-78
2023/08/31 12:21:35;;;;;;;;;4.00;1.00;;;;;;;;4660555;30;29289;-78
2023/08/31 12:24:00;;;;;;;;;0.67;0.67;;;;;;;;4662449;30;27866;-79
2023/08/31 12:26:26;;;;;;;;;1.33;0.33;;;;;;;;4647076;30;28554;-79
2023/08/31 12:28:51;;;;;;;;;1.67;0.67;;;;;;;;4639592;30;28603;-79
2023/08/31 12:31:16;;;;;;;;;0.00;0.00;;;;;;;;4647580;30;28602;-79
2023/08/31 12:33:42;;;;;;;;;1.00;1.00;;;;;;;;4648837;30;28538;-79
2023/08/31 12:36:07;;;;;;;;;0.00;0.00;;;;;;;;4645728;30;28448;-78
2023/08/31 12:38:33;;;;;;;;;1.00;1.00;;;;;;;;4641533;30;28539;-79
2023/08/31 12:40:58;;;;;;;;;1.00;1.00;;;;;;;;4640327;30;29559;-78
2023/08/31 12:43:23;;;;;;;;;2.00;1.00;;;;;;;;4642498;30;28761;-77
2023/08/31 12:45:49;;;;;;;;;0.00;0.00;;;;;;;;4658932;30;28622;-78
2023/08/31 12:48:14;;;;;;;;;3.67;1.00;;;;;;;;4659519;30;28520;-76
2023/08/31 12:50:39;;;;;;;;;1.00;1.00;;;;;;;;4661263;30;29140;-76
2023/08/31 12:53:04;;;;;;;;;0.67;0.67;;;;;;;;4649831;30;28424;-76
2023/08/31 12:55:30;;;;;;;;;1.33;1.00;;;;;;;;4652120;30;28570;-75
2023/08/31 12:57:55;;;;;;;;;0.67;0.33;;;;;;;;4645747;30;28692;-76
2023/08/31 13:00:21;;;;;;;;;0.00;0.00;;;;;;;;4647577;30;28607;-75
2023/08/31 13:02:46;;;;;;;;;0.67;0.67;;;;;;;;4653068;30;28517;-75
2023/08/31 13:05:11;;;;;;;;;0.00;0.00;;;;;;;;4639124;30;28576;-75
2023/08/31 13:07:37;;;;;;;;;1.00;1.00;;;;;;;;4633367;30;28552;-76
2023/08/31 13:10:06;;;;;;;;;2.67;2.00;;;;;;;;4645840;30;28524;-76
2023/08/31 13:12:32;;;;;;;;;1.67;1.67;;;;;;;;4646210;30;28534;-76
2023/08/31 13:14:57;;;;;;;;;2.00;1.00;;;;;;;;4645560;30;28497;-75
2023/08/31 13:17:29;;;;;;;;;1.00;1.00;;;;;;;;4645276;30;28512;-75
2023/08/31 13:19:55;;;;;;;;;3.33;1.33;;;;;;;;4646289;30;28557;-75
2023/08/31 13:22:20;;;;;;;;;5.00;3.67;;;;;;;;4646160;30;28549;-76
2023/08/31 13:24:46;;;;;;;;;1.67;0.67;;;;;;;;4646589;30;28653;-75
2023/08/31 13:27:11;;;;;;;;;2.00;0.00;;;;;;;;4646612;30;28443;-76
2023/08/31 13:29:36;;;;;;;;;3.67;2.67;;;;;;;;4646089;30;28492;-76
2023/08/31 13:32:02;;;;;;;;;1.67;1.67;;;;;;;;4646519;30;28490;-76
2023/08/31 13:34:27;;;;;;;;;7.00;3.33;;;;;;;;4645165;30;28358;-77
2023/08/31 13:36:52;;;;;;;;;3.00;3.00;;;;;;;;4644875;30;28718;-77
2023/08/31 13:39:18;;;;;;;;;2.50;2.50;;;;;;;;4646063;30;28657;-77
2023/08/31 13:41:45;;;;;;;;;3.00;2.00;;;;;;;;4644661;30;28469;-77
2023/08/31 13:44:11;;;;;;;;;1.00;1.00;;;;;;;;4645273;30;28487;-78
2023/08/31 13:46:36;;;;;;;;;6.00;3.33;;;;;;;;4645360;30;28510;-77
2023/08/31 13:49:02;;;;;;;;;2.33;1.00;;;;;;;;4645263;30;29895;-78
2023/08/31 13:51:28;;;;;;;;;5.00;4.00;;;;;;;;4644937;30;28415;-78
2023/08/31 13:53:53;;;;;;;;;5.67;2.00;;;;;;;;4644847;30;28455;-79
2023/08/31 13:56:18;;;;;;;;;4.00;3.00;;;;;;;;4645764;30;28711;-80
2023/08/31 13:58:43;;;;;;;;;2.67;2.67;;;;;;;;4647571;30;28912;-80
2023/08/31 14:01:09;;;;;;;;;3.00;3.00;;;;;;;;4647702;30;28487;-77
2023/08/31 14:03:34;;;;;;;;;1.67;1.67;;;;;;;;4644284;30;28618;-78
2023/08/31 14:05:59;;;;;;;;;2.00;2.00;;;;;;;;4639331;30;28712;-76
2023/08/31 14:08:25;;;;;;;;;3.00;3.00;;;;;;;;4644644;30;28559;-76
2023/08/31 14:10:52;;;;;;;;;2.67;2.67;;;;;;;;4645504;30;28538;-77
2023/08/31 14:13:17;;;;;;;;;4.00;2.67;;;;;;;;4653876;30;28563;-77
2023/08/31 14:15:46;;;;;;;;;3.00;2.00;;;;;;;;4657855;30;28332;-76
2023/08/31 14:18:11;;;;;;;;;5.67;3.00;;;;;;;;4651607;30;28373;-75
2023/08/31 14:20:36;;;;;;;;;6.00;3.00;;;;;;;;4655983;30;28786;-76
2023/08/31 14:23:02;;;;;;;;;3.00;3.00;;;;;;;;4649389;30;28425;-76
2023/08/31 14:25:27;;;;;;;;;4.00;3.00;;;;;;;;4644761;30;29269;-76
2023/08/31 14:27:52;;;;;;;;;2.67;2.67;;;;;;;;4655602;30;28388;-77
2023/08/31 14:30:18;;;;;;;;;3.00;2.33;;;;;;;;4658707;30;28432;-77
2023/08/31 14:32:43;;;;;;;;;1.33;1.33;;;;;;;;4652008;30;28396;-78
2023/08/31 14:35:08;;;;;;;;;1.67;1.67;;;;;;;;4661879;30;28483;-77